createdAt,value
2023-11-30T00:01:27.904Z,96134.31
2023-11-30T00:03:56.024Z,96130.81
2023-11-30T00:06:25.499Z,96130.47
2023-11-30T00:08:54.727Z,96135.56
2023-11-30T00:11:22.741Z,96139.94
2023-11-30T00:13:50.658Z,96124.69
2023-11-30T00:16:18.712Z,96127.09
2023-11-30T00:18:46.747Z,96129.75
2023-11-30T00:21:14.832Z,96137.69
2023-11-30T00:23:44.184Z,96142.03
2023-11-30T00:26:12.616Z,96145.34
2023-11-30T00:28:40.548Z,96134.78
2023-11-30T00:31:09.736Z,96129.34
2023-11-30T00:33:37.778Z,96130.47
2023-11-30T00:36:09.079Z,96128.81
2023-11-30T00:38:37.093Z,96125.28
2023-11-30T00:41:06.792Z,96128.19
2023-11-30T00:43:34.759Z,96133.47
2023-11-30T00:46:09.497Z,96125.75
2023-11-30T00:48:38.164Z,96124.94
2023-11-30T00:51:06.459Z,96132.41
2023-11-30T00:53:34.431Z,96130.38
2023-11-30T00:56:02.373Z,96126.72
2023-11-30T00:58:31.740Z,96116.00
2023-11-30T01:00:59.806Z,96103.00
2023-11-30T01:03:27.950Z,96102.56
2023-11-30T01:05:55.974Z,96104.75
2023-11-30T01:08:24.024Z,96104.25
2023-11-30T01:10:51.989Z,96100.41
2023-11-30T01:13:19.999Z,96098.41
2023-11-30T01:15:49.453Z,96095.66
2023-11-30T01:18:17.561Z,96091.75
2023-11-30T01:20:45.656Z,96095.25
2023-11-30T01:23:13.616Z,96095.13
2023-11-30T01:25:41.557Z,96085.78
2023-11-30T01:28:09.544Z,96091.50
2023-11-30T01:30:37.606Z,96088.25
2023-11-30T01:33:07.058Z,96098.19
2023-11-30T01:35:35.106Z,96099.19
2023-11-30T01:38:03.316Z,96096.81
2023-11-30T01:40:31.621Z,96098.75
2023-11-30T01:43:07.823Z,96107.19
2023-11-30T01:45:35.925Z,96095.03
2023-11-30T01:48:04.190Z,96092.75
2023-11-30T01:50:33.636Z,96091.56
2023-11-30T01:53:01.574Z,96078.31
2023-11-30T01:55:29.586Z,96081.25
2023-11-30T01:57:57.622Z,96078.09
2023-11-30T02:00:25.585Z,96075.94
2023-11-30T02:02:53.578Z,96066.44
2023-11-30T02:05:21.533Z,96064.25
2023-11-30T02:07:50.896Z,96065.59
2023-11-30T02:10:18.914Z,96064.75
2023-11-30T02:12:46.939Z,96056.44
2023-11-30T02:15:15.018Z,96053.78
2023-11-30T02:17:43.005Z,96044.44
2023-11-30T02:20:11.907Z,96050.41
2023-11-30T02:22:41.283Z,96045.84
2023-11-30T02:25:10.002Z,96038.06
2023-11-30T02:27:38.120Z,96032.41
2023-11-30T02:30:07.376Z,96032.16
2023-11-30T02:32:35.584Z,96032.53
2023-11-30T02:35:03.701Z,96025.41
2023-11-30T02:37:31.746Z,96022.91
2023-11-30T02:40:01.094Z,96023.50
2023-11-30T02:42:29.131Z,96024.53
2023-11-30T02:44:57.185Z,96019.22
2023-11-30T02:47:25.194Z,96026.75
2023-11-30T02:49:53.314Z,96031.50
2023-11-30T02:52:21.309Z,96036.50
2023-11-30T02:54:49.296Z,96036.78
2023-11-30T02:57:18.856Z,96040.25
2023-11-30T02:59:47.288Z,96035.56
2023-11-30T03:02:15.647Z,96027.38
2023-11-30T03:04:43.772Z,96024.75
2023-11-30T03:07:11.825Z,96025.72
2023-11-30T03:09:39.806Z,96033.66
2023-11-30T03:12:08.214Z,96038.19
2023-11-30T03:14:37.649Z,96039.28
2023-11-30T03:17:05.812Z,96044.09
2023-11-30T03:19:33.877Z,96043.25
2023-11-30T03:22:01.835Z,96041.56
2023-11-30T03:24:29.869Z,96032.91
2023-11-30T03:26:57.874Z,96015.81
2023-11-30T03:29:25.887Z,96011.22
2023-11-30T03:31:55.316Z,96017.47
2023-11-30T03:34:23.353Z,96021.22
2023-11-30T03:36:51.437Z,96016.59
2023-11-30T03:39:19.622Z,96019.91
2023-11-30T03:41:47.654Z,96017.50
2023-11-30T03:44:15.713Z,96012.59
2023-11-30T03:46:43.813Z,96014.59
2023-11-30T03:49:13.273Z,96016.31
2023-11-30T03:51:41.344Z,96021.38
2023-11-30T03:54:09.406Z,96017.81
2023-11-30T03:56:37.463Z,96020.63
2023-11-30T03:59:05.412Z,96019.38
2023-11-30T04:01:33.471Z,96022.78
2023-11-30T04:04:01.692Z,96017.25
2023-11-30T04:06:31.216Z,96019.19
2023-11-30T04:09:00.506Z,96021.59
2023-11-30T04:11:28.543Z,96017.41
2023-11-30T04:14:06.090Z,96017.81
2023-11-30T04:16:34.490Z,96013.22
2023-11-30T04:19:02.607Z,96022.94
2023-11-30T04:21:32.092Z,96017.47
2023-11-30T04:24:00.118Z,96023.94
2023-11-30T04:26:28.352Z,96017.03
2023-11-30T04:28:56.301Z,96023.41
2023-11-30T04:31:24.300Z,96018.63
2023-11-30T04:33:52.351Z,96016.59
2023-11-30T04:36:20.915Z,96018.09
2023-11-30T04:38:50.267Z,96021.13
2023-11-30T04:41:18.288Z,96018.97
2023-11-30T04:43:46.251Z,96015.97
2023-11-30T04:46:14.242Z,96006.25
2023-11-30T04:48:42.583Z,95989.66
2023-11-30T04:51:11.151Z,95994.72
2023-11-30T04:53:39.529Z,95998.06
2023-11-30T04:56:10.034Z,95999.50
2023-11-30T04:58:37.951Z,95993.13
2023-11-30T05:01:06.231Z,95998.31
2023-11-30T05:03:34.495Z,95997.59
2023-11-30T05:06:02.590Z,95991.78
2023-11-30T05:08:30.571Z,95998.63
2023-11-30T05:10:58.600Z,95990.09
2023-11-30T05:13:28.458Z,95993.97
2023-11-30T05:15:56.408Z,95992.72
2023-11-30T05:18:24.415Z,95999.00
2023-11-30T05:20:52.454Z,95998.16
2023-11-30T05:23:20.484Z,96004.44
2023-11-30T05:25:48.486Z,95988.78
2023-11-30T05:28:16.428Z,95984.06
2023-11-30T05:30:45.813Z,95992.03
2023-11-30T05:33:13.913Z,95991.41
2023-11-30T05:35:42.001Z,95993.56
2023-11-30T05:38:09.997Z,95986.00
2023-11-30T05:40:38.125Z,95978.19
2023-11-30T05:43:06.467Z,95993.84
2023-11-30T05:45:34.520Z,95982.78
2023-11-30T05:48:04.036Z,95984.59
2023-11-30T05:50:32.113Z,95989.03
2023-11-30T05:53:00.121Z,95977.03
2023-11-30T05:55:28.152Z,95980.53
2023-11-30T05:57:56.123Z,95975.72
2023-11-30T06:00:24.117Z,95970.66
2023-11-30T06:02:52.196Z,95966.00
2023-11-30T06:05:21.624Z,95969.00
2023-11-30T06:07:49.657Z,95962.66
2023-11-30T06:10:17.727Z,95965.53
2023-11-30T06:12:45.835Z,95969.97
2023-11-30T06:15:14.584Z,95963.00
2023-11-30T06:17:42.819Z,95971.88
2023-11-30T06:20:16.629Z,95971.44
2023-11-30T06:22:51.535Z,95977.16
2023-11-30T06:25:26.140Z,95974.06
2023-11-30T06:27:54.456Z,95975.16
2023-11-30T06:30:22.500Z,95978.28
2023-11-30T06:32:50.627Z,95975.28
2023-11-30T06:35:18.746Z,95967.78
2023-11-30T06:37:48.192Z,95970.22
2023-11-30T06:40:16.384Z,95977.69
2023-11-30T06:42:44.307Z,95974.28
2023-11-30T06:45:13.059Z,95973.13
2023-11-30T06:47:41.130Z,95978.25
2023-11-30T06:50:09.933Z,95982.97
2023-11-30T06:52:37.946Z,95978.13
2023-11-30T06:55:08.028Z,95988.69
2023-11-30T06:57:36.409Z,95983.53
2023-11-30T07:00:07.902Z,95989.31
2023-11-30T07:02:36.004Z,95980.97
2023-11-30T07:05:06.487Z,95987.75
2023-11-30T07:07:36.870Z,95988.69
2023-11-30T07:10:08.562Z,95990.47
2023-11-30T07:12:36.559Z,95973.16
2023-11-30T07:15:05.187Z,95978.09
2023-11-30T07:17:33.253Z,95973.25
2023-11-30T07:20:01.643Z,95971.09
2023-11-30T07:22:30.659Z,95969.44
2023-11-30T07:24:58.704Z,95967.75
2023-11-30T07:27:28.731Z,95959.69
2023-11-30T07:29:56.862Z,95971.59
2023-11-30T07:32:25.239Z,95968.19
2023-11-30T07:34:53.997Z,95972.31
2023-11-30T07:37:23.460Z,95960.25
2023-11-30T07:39:51.499Z,95962.78
2023-11-30T07:42:29.337Z,95971.00
2023-11-30T07:45:04.810Z,95968.41
2023-11-30T07:47:32.971Z,95962.94
2023-11-30T07:50:01.424Z,95967.91
2023-11-30T07:52:30.250Z,95957.56
2023-11-30T07:54:58.383Z,95954.34
2023-11-30T07:57:26.492Z,95964.03
2023-11-30T07:59:54.573Z,95962.88
2023-11-30T08:02:23.939Z,95959.59
2023-11-30T08:04:51.956Z,95957.50
2023-11-30T08:07:21.928Z,95963.63
2023-11-30T08:09:50.056Z,95964.00
2023-11-30T08:12:18.104Z,95961.06
2023-11-30T08:14:46.083Z,95964.97
2023-11-30T08:17:14.172Z,95964.19
2023-11-30T08:19:43.584Z,95964.78
2023-11-30T08:22:14.656Z,95969.31
2023-11-30T08:24:44.105Z,95963.91
2023-11-30T08:27:12.340Z,95968.31
2023-11-30T08:29:40.378Z,95957.38
2023-11-30T08:32:08.444Z,95968.03
2023-11-30T08:34:36.902Z,95955.09
2023-11-30T08:37:06.516Z,95957.63
2023-11-30T08:39:34.512Z,95961.94
2023-11-30T08:42:02.751Z,95967.16
2023-11-30T08:44:30.781Z,95971.97
2023-11-30T08:46:58.804Z,95969.41
2023-11-30T08:49:26.807Z,95965.84
2023-11-30T08:51:55.517Z,95975.47
2023-11-30T08:54:25.403Z,95967.97
2023-11-30T08:56:54.101Z,95967.25
2023-11-30T08:59:22.769Z,95965.00
2023-11-30T09:01:50.193Z,95966.16
2023-11-30T09:04:18.438Z,95965.38
2023-11-30T09:06:46.815Z,95963.03
2023-11-30T09:09:15.008Z,95960.09
2023-11-30T09:11:45.931Z,95959.56
2023-11-30T09:14:14.013Z,95951.59
2023-11-30T09:16:42.082Z,95947.69
2023-11-30T09:19:10.133Z,95948.19
2023-11-30T09:21:38.148Z,95940.78
2023-11-30T09:24:11.175Z,95943.78
2023-11-30T09:27:02.943Z,95941.22
2023-11-30T09:29:31.534Z,95942.38
2023-11-30T09:32:00.828Z,95944.72
2023-11-30T09:34:36.919Z,95941.19
2023-11-30T09:37:10.566Z,95955.81
2023-11-30T09:39:43.521Z,95942.88
2023-11-30T09:42:17.360Z,95951.56
2023-11-30T09:44:45.544Z,95948.00
2023-11-30T09:47:13.783Z,95944.81
2023-11-30T09:49:41.837Z,95939.72
2023-11-30T09:52:12.301Z,95937.06
2023-11-30T09:54:40.305Z,95927.34
2023-11-30T09:57:08.683Z,95926.56
2023-11-30T09:59:38.506Z,95920.00
2023-11-30T10:02:07.714Z,95922.69
2023-11-30T10:04:37.075Z,95923.72
2023-11-30T10:07:05.046Z,95923.81
2023-11-30T10:09:34.850Z,95929.72
2023-11-30T10:12:02.803Z,95927.00
2023-11-30T10:14:30.823Z,95929.47
2023-11-30T10:17:01.178Z,95933.28
2023-11-30T10:19:29.714Z,95926.63
2023-11-30T10:21:57.922Z,95922.38
2023-11-30T10:24:26.033Z,95918.72
2023-11-30T10:26:54.240Z,95921.84
2023-11-30T10:29:22.543Z,95921.63
2023-11-30T10:31:51.559Z,95913.66
2023-11-30T10:34:22.783Z,95913.69
2023-11-30T10:36:51.142Z,95913.56
2023-11-30T10:39:19.471Z,95913.25
2023-11-30T10:41:52.015Z,95918.56
2023-11-30T10:44:27.499Z,95908.09
2023-11-30T10:46:56.971Z,95906.88
2023-11-30T10:49:27.032Z,95909.94
2023-11-30T10:51:59.049Z,95902.69
2023-11-30T10:54:33.086Z,95901.28
2023-11-30T10:57:01.568Z,95899.47
2023-11-30T10:59:30.693Z,95896.69
2023-11-30T11:01:58.936Z,95908.69
2023-11-30T11:04:28.758Z,95905.75
2023-11-30T11:07:03.285Z,95905.50
2023-11-30T11:09:41.816Z,95903.78
2023-11-30T11:12:20.293Z,95900.03
2023-11-30T11:14:49.404Z,95898.50
2023-11-30T11:17:17.461Z,95907.03
2023-11-30T11:19:46.837Z,95904.50
2023-11-30T11:22:18.719Z,95914.00
2023-11-30T11:24:48.374Z,95912.88
2023-11-30T11:27:29.025Z,95917.47
2023-11-30T11:29:58.300Z,95912.59
2023-11-30T11:32:26.654Z,95911.78
2023-11-30T11:34:56.053Z,95912.00
2023-11-30T11:37:24.191Z,95917.50
2023-11-30T11:39:53.516Z,95910.75
2023-11-30T11:42:23.575Z,95906.59
2023-11-30T11:44:51.851Z,95915.91
2023-11-30T11:47:21.203Z,95910.19
2023-11-30T11:49:49.256Z,95906.72
2023-11-30T11:52:22.212Z,95911.34
2023-11-30T11:55:00.480Z,95915.22
2023-11-30T11:57:35.963Z,95912.16
2023-11-30T12:00:04.474Z,95909.06
2023-11-30T12:02:33.956Z,95901.69
2023-11-30T12:05:09.988Z,95897.75
2023-11-30T12:07:49.416Z,95891.78
2023-11-30T12:10:31.198Z,95893.00
2023-11-30T12:12:59.701Z,95895.25
2023-11-30T12:15:27.768Z,95890.94
2023-11-30T12:17:55.882Z,95882.00
2023-11-30T12:20:24.447Z,95875.56
2023-11-30T12:22:53.834Z,95874.47
2023-11-30T12:25:21.769Z,95873.50
2023-11-30T12:27:51.410Z,95871.25
2023-11-30T12:30:20.104Z,95870.00
2023-11-30T12:32:48.587Z,95875.56
2023-11-30T12:35:16.653Z,95877.97
2023-11-30T12:37:44.641Z,95879.63
2023-11-30T12:40:15.017Z,95881.69
2023-11-30T12:42:44.155Z,95875.56
2023-11-30T12:45:12.436Z,95878.66
2023-11-30T12:47:41.621Z,95871.25
2023-11-30T12:50:11.260Z,95871.13
2023-11-30T12:52:39.402Z,95866.50
2023-11-30T12:55:09.516Z,95865.25
2023-11-30T12:57:40.683Z,95858.56
2023-11-30T13:00:16.223Z,95859.09
2023-11-30T13:02:47.080Z,95870.28
2023-11-30T13:05:15.537Z,95866.78
2023-11-30T13:07:43.542Z,95859.25
2023-11-30T13:10:12.748Z,95862.16
2023-11-30T13:12:42.993Z,95861.88
2023-11-30T13:15:13.623Z,95852.38
2023-11-30T13:17:42.555Z,95853.88
2023-11-30T13:20:14.214Z,95851.91
2023-11-30T13:22:43.264Z,95850.25
2023-11-30T13:25:14.828Z,95849.50
2023-11-30T13:27:47.521Z,95848.84
2023-11-30T13:30:16.739Z,95849.25
2023-11-30T13:32:44.766Z,95852.38
2023-11-30T13:35:12.773Z,95853.22
2023-11-30T13:37:41.051Z,95855.44
2023-11-30T13:40:11.090Z,95847.03
2023-11-30T13:42:39.312Z,95849.13
2023-11-30T13:45:09.581Z,95853.91
2023-11-30T13:47:37.584Z,95858.66
2023-11-30T13:50:12.543Z,95858.66
2023-11-30T13:52:48.376Z,95849.03
2023-11-30T13:55:16.598Z,95858.69
2023-11-30T13:57:45.161Z,95857.56
2023-11-30T14:00:21.592Z,95852.53
2023-11-30T14:02:56.304Z,95856.31
2023-11-30T14:05:24.817Z,95856.03
2023-11-30T14:07:52.808Z,95856.47
2023-11-30T14:10:19.956Z,95859.38
2023-11-30T14:12:48.253Z,95857.44
2023-11-30T14:15:40.300Z,95860.63
2023-11-30T14:18:08.745Z,95866.38
2023-11-30T14:20:38.426Z,95875.31
2023-11-30T14:23:22.497Z,95872.78
2023-11-30T14:26:06.851Z,95867.75
2023-11-30T14:28:36.106Z,95867.75
2023-11-30T14:31:05.782Z,95873.69
2023-11-30T14:33:33.836Z,95877.19
2023-11-30T14:36:01.866Z,95877.50
2023-11-30T14:38:29.815Z,95875.94
2023-11-30T14:40:58.826Z,95887.50
2023-11-30T14:43:27.786Z,95885.41
2023-11-30T14:45:55.946Z,95893.88
2023-11-30T14:48:25.534Z,95895.69
2023-11-30T14:50:55.749Z,95891.84
2023-11-30T14:53:24.038Z,95895.81
2023-11-30T14:55:52.030Z,95897.16
2023-11-30T14:58:21.102Z,95904.44
2023-11-30T15:00:50.341Z,95904.09
2023-11-30T15:03:18.432Z,95905.34
2023-11-30T15:05:47.954Z,95905.47
2023-11-30T15:08:17.635Z,95905.22
2023-11-30T15:10:49.830Z,95908.25
2023-11-30T15:13:18.101Z,95916.41
2023-11-30T15:15:46.336Z,95910.75
2023-11-30T15:18:14.559Z,95908.09
2023-11-30T15:20:45.004Z,95909.41
2023-11-30T15:23:14.356Z,95910.63
2023-11-30T15:25:42.442Z,95907.53
2023-11-30T15:28:12.078Z,95911.91
2023-11-30T15:30:40.112Z,95911.59
2023-11-30T15:33:09.919Z,95918.56
2023-11-30T15:35:39.540Z,95919.25
2023-11-30T15:38:15.065Z,95921.69
2023-11-30T15:40:47.603Z,95916.59
2023-11-30T15:43:15.656Z,95920.63
2023-11-30T15:45:43.661Z,95924.09
2023-11-30T15:48:14.195Z,95923.38
2023-11-30T15:50:42.316Z,95925.00
2023-11-30T15:53:10.287Z,95919.13
2023-11-30T15:55:38.877Z,95920.47
2023-11-30T15:58:08.324Z,95919.38
2023-11-30T16:00:36.623Z,95912.53
2023-11-30T16:03:05.860Z,95911.81
2023-11-30T16:05:34.073Z,95918.44
2023-11-30T16:08:02.019Z,95919.53
2023-11-30T16:10:30.012Z,95924.56
2023-11-30T16:12:57.995Z,95929.53
2023-11-30T16:15:29.004Z,95936.97
2023-11-30T16:17:57.172Z,95934.81
2023-11-30T16:20:25.660Z,95934.63
2023-11-30T16:22:53.645Z,95941.56
2023-11-30T16:25:21.834Z,95934.63
2023-11-30T16:27:49.899Z,95939.94
2023-11-30T16:30:19.707Z,95939.31
2023-11-30T16:32:49.871Z,95945.22
2023-11-30T16:35:17.892Z,95942.19
2023-11-30T16:37:45.800Z,95941.34
2023-11-30T16:40:13.906Z,95942.31
2023-11-30T16:42:44.553Z,95946.41
2023-11-30T16:45:19.154Z,95948.69
2023-11-30T16:47:48.707Z,95955.78
2023-11-30T16:50:16.744Z,95943.34
2023-11-30T16:52:49.194Z,95938.78
2023-11-30T16:55:26.472Z,95950.22
2023-11-30T16:57:55.161Z,95941.41
2023-11-30T17:00:23.431Z,95943.34
2023-11-30T17:02:54.764Z,95939.22
2023-11-30T17:05:22.843Z,95939.00
2023-11-30T17:07:50.851Z,95933.03
2023-11-30T17:10:18.914Z,95934.47
2023-11-30T17:12:46.941Z,95933.91
2023-11-30T17:15:15.371Z,95937.38
2023-11-30T17:17:46.517Z,95936.06
2023-11-30T17:20:16.068Z,95941.00
2023-11-30T17:22:47.045Z,95933.34
2023-11-30T17:25:15.281Z,95940.78
2023-11-30T17:27:43.307Z,95941.63
2023-11-30T17:30:11.893Z,95949.91
2023-11-30T17:32:39.968Z,95949.44
2023-11-30T17:35:08.974Z,95955.06
2023-11-30T17:37:38.381Z,95954.84
2023-11-30T17:40:07.348Z,95959.69
2023-11-30T17:42:36.193Z,95956.88
2023-11-30T17:45:04.568Z,95952.09
2023-11-30T17:47:32.566Z,95955.00
2023-11-30T17:50:03.108Z,95950.31
2023-11-30T17:52:32.419Z,95952.81
2023-11-30T17:55:02.365Z,95953.06
2023-11-30T17:57:30.466Z,95963.06
2023-11-30T17:59:58.434Z,95958.97
2023-11-30T18:02:27.789Z,95964.59
2023-11-30T18:04:55.909Z,95962.78
2023-11-30T18:07:23.906Z,95963.75
2023-11-30T18:09:51.939Z,95959.19
2023-11-30T18:12:21.351Z,95960.53
2023-11-30T18:14:49.344Z,95960.16
2023-11-30T18:17:17.328Z,95975.78
2023-11-30T18:19:45.313Z,95970.72
2023-11-30T18:22:13.326Z,95972.91
2023-11-30T18:24:41.365Z,95973.84
2023-11-30T18:27:09.348Z,95973.63
2023-11-30T18:29:38.954Z,95977.94
2023-11-30T18:32:07.160Z,95966.53
2023-11-30T18:34:36.850Z,95971.31
2023-11-30T18:37:08.420Z,95972.53
2023-11-30T18:39:39.852Z,95969.63
2023-11-30T18:42:15.958Z,95968.31
2023-11-30T18:44:45.494Z,95975.38
2023-11-30T18:47:15.746Z,95971.53
2023-11-30T18:49:43.799Z,95972.25
2023-11-30T18:52:11.752Z,95975.97
2023-11-30T18:54:40.267Z,95984.03
2023-11-30T18:57:08.280Z,95980.28
2023-11-30T18:59:36.258Z,95981.25
2023-11-30T19:02:06.092Z,95982.94
2023-11-30T19:04:34.903Z,95981.63
2023-11-30T19:07:02.865Z,95978.03
2023-11-30T19:09:30.843Z,95971.69
2023-11-30T19:11:58.854Z,95981.25
2023-11-30T19:14:27.245Z,95985.56
2023-11-30T19:16:55.250Z,95985.84
2023-11-30T19:19:26.203Z,95984.16
2023-11-30T19:21:54.487Z,95987.13
2023-11-30T19:24:22.536Z,95987.47
2023-11-30T19:26:50.493Z,95997.19
2023-11-30T19:29:19.487Z,95997.69
2023-11-30T19:31:47.529Z,96004.41
2023-11-30T19:34:16.234Z,96004.91
2023-11-30T19:36:46.416Z,96008.81
2023-11-30T19:39:14.540Z,96008.56
2023-11-30T19:41:43.853Z,96010.19
2023-11-30T19:44:12.659Z,96006.09
2023-11-30T19:46:40.817Z,96010.44
2023-11-30T19:49:08.817Z,96018.91
2023-11-30T19:51:37.231Z,96009.50
2023-11-30T19:54:06.840Z,96013.84
2023-11-30T19:56:37.030Z,96018.16
2023-11-30T19:59:05.004Z,96027.00
2023-11-30T20:01:33.402Z,96025.81
2023-11-30T20:04:01.548Z,96034.78
2023-11-30T20:06:29.588Z,96031.50
2023-11-30T20:08:57.679Z,96032.78
2023-11-30T20:11:27.214Z,96028.97
2023-11-30T20:13:55.285Z,96031.09
2023-11-30T20:16:23.383Z,96037.94
2023-11-30T20:18:51.468Z,96031.47
2023-11-30T20:21:19.882Z,96030.50
2023-11-30T20:23:47.914Z,96028.59
2023-11-30T20:26:18.780Z,96026.41
2023-11-30T20:28:48.181Z,96024.03
2023-11-30T20:31:16.693Z,96027.41
2023-11-30T20:33:46.974Z,96033.03
2023-11-30T20:36:15.847Z,96031.66
2023-11-30T20:38:44.739Z,96037.47
2023-11-30T20:41:13.102Z,96032.28
2023-11-30T20:43:41.098Z,96029.28
2023-11-30T20:46:10.628Z,96029.28
2023-11-30T20:48:38.666Z,96038.00
2023-11-30T20:51:07.351Z,96039.97
2023-11-30T20:53:35.448Z,96046.47
2023-11-30T20:56:03.953Z,96057.44
2023-11-30T20:58:32.228Z,96044.06
2023-11-30T21:01:00.859Z,96042.91
2023-11-30T21:03:30.979Z,96045.63
2023-11-30T21:06:01.043Z,96056.28
2023-11-30T21:08:31.096Z,96056.78
2023-11-30T21:10:59.144Z,96057.66
2023-11-30T21:13:27.123Z,96056.59
2023-11-30T21:15:55.113Z,96060.28
2023-11-30T21:18:23.193Z,96069.28
2023-11-30T21:20:52.556Z,96067.00
2023-11-30T21:23:20.539Z,96059.09
2023-11-30T21:25:48.840Z,96064.56
2023-11-30T21:28:16.841Z,96060.91
2023-11-30T21:30:44.903Z,96066.56
2023-11-30T21:33:12.901Z,96081.69
2023-11-30T21:35:40.981Z,96067.56
2023-11-30T21:38:10.342Z,96073.94
2023-11-30T21:40:38.483Z,96074.28
2023-11-30T21:43:06.514Z,96080.78
2023-11-30T21:45:34.532Z,96077.31
2023-11-30T21:48:03.047Z,96076.25
2023-11-30T21:50:31.078Z,96078.97
2023-11-30T21:52:59.104Z,96072.44
2023-11-30T21:55:28.621Z,96072.78
2023-11-30T21:57:56.584Z,96075.09
2023-11-30T22:00:24.628Z,96073.78
2023-11-30T22:02:52.763Z,96083.13
2023-11-30T22:05:27.056Z,96078.47
2023-11-30T22:08:03.539Z,96080.28
2023-11-30T22:10:32.903Z,96076.28
2023-11-30T22:13:01.037Z,96090.09
2023-11-30T22:15:29.119Z,96073.97
2023-11-30T22:17:57.812Z,96079.34
2023-11-30T22:20:25.857Z,96079.03
2023-11-30T22:22:54.225Z,96078.25
2023-11-30T22:25:23.903Z,96072.69
2023-11-30T22:27:53.269Z,96081.75
2023-11-30T22:30:21.356Z,96080.50
2023-11-30T22:32:49.354Z,96080.91
2023-11-30T22:35:18.088Z,96084.38
2023-11-30T22:37:46.108Z,96087.22
2023-11-30T22:40:14.597Z,96094.56
2023-11-30T22:42:42.578Z,96086.81
2023-11-30T22:45:12.457Z,96085.31
2023-11-30T22:47:40.426Z,96080.66
2023-11-30T22:50:09.933Z,96084.97
2023-11-30T22:52:38.051Z,96066.47
2023-11-30T22:55:06.589Z,96071.19
2023-11-30T22:57:34.749Z,96074.16
2023-11-30T23:00:03.053Z,96072.56
2023-11-30T23:02:32.646Z,96072.34
2023-11-30T23:05:01.080Z,96074.28
2023-11-30T23:07:29.603Z,96070.59
2023-11-30T23:09:57.655Z,96068.28
2023-11-30T23:12:25.647Z,96074.47
2023-11-30T23:14:53.662Z,96077.72
2023-11-30T23:17:22.282Z,96073.78
2023-11-30T23:19:51.793Z,96080.34
2023-11-30T23:22:19.805Z,96073.94
2023-11-30T23:24:47.830Z,96073.09
2023-11-30T23:27:15.768Z,96069.44
2023-11-30T23:29:43.745Z,96066.09
2023-11-30T23:32:11.715Z,96072.38
2023-11-30T23:34:39.673Z,96065.00
2023-11-30T23:37:09.049Z,96079.66
2023-11-30T23:39:37.031Z,96079.22
2023-11-30T23:42:05.484Z,96095.59
2023-11-30T23:44:33.568Z,96096.34
2023-11-30T23:47:01.595Z,96095.94
2023-11-30T23:49:29.676Z,96101.25
2023-11-30T23:51:57.981Z,96106.28
2023-11-30T23:54:27.343Z,96111.16
2023-11-30T23:56:55.364Z,96109.41
2023-11-30T23:59:23.367Z,96114.16
